sensor_id;sensor_type;location;lat;lon;timestamp;pressure;altitude;pressure_sealevel;temperature;humidity
71239;BME280;61342;51.442;7.370;2023-03-20T00:00:49;100329.59;;;12.15;91.99
71239;BME280;61342;51.442;7.370;2023-03-20T00:01:50;100337.97;;;12.13;92.25
71239;BME280;61342;51.442;7.370;2023-03-20T00:02:51;100327.06;;;12.06;92.42
71239;BME280;61342;51.442;7.370;2023-03-20T00:03:51;100334.88;;;12.11;92.46
71239;BME280;61342;51.442;7.370;2023-03-20T00:04:52;100334.88;;;12.11;92.56
71239;BME280;61342;51.442;7.370;2023-03-20T00:05:52;100327.06;;;12.06;92.37
71239;BME280;61342;51.442;7.370;2023-03-20T00:06:52;100338.03;;;12.07;92.10
71239;BME280;61342;51.442;7.370;2023-03-20T00:07:53;100332.06;;;12.06;91.96
71239;BME280;61342;51.442;7.370;2023-03-20T00:08:54;100339.91;;;12.05;92.14
71239;BME280;61342;51.442;7.370;2023-03-20T00:09:56;100333.66;;;12.01;92.25
71239;BME280;61342;51.442;7.370;2023-03-20T00:10:57;100328.72;;;11.96;92.19
71239;BME280;61342;51.442;7.370;2023-03-20T00:11:58;100343.88;;;12.02;92.03
71239;BME280;61342;51.442;7.370;2023-03-20T00:12:59;100333.97;;;11.98;92.29
71239;BME280;61342;51.442;7.370;2023-03-20T00:14:05;100344.94;;;11.99;92.02
71239;BME280;61342;51.442;7.370;2023-03-20T00:15:18;100343.66;;;11.95;92.10
71239;BME280;61342;51.442;7.370;2023-03-20T00:16:23;100336.69;;;11.85;92.32
71239;BME280;61342;51.442;7.370;2023-03-20T00:17:24;100343.97;;;11.91;92.20
71239;BME280;61342;51.442;7.370;2023-03-20T00:18:25;100346.84;;;11.91;92.37
71239;BME280;61342;51.442;7.370;2023-03-20T00:19:27;100354.94;;;11.93;92.47
71239;BME280;61342;51.442;7.370;2023-03-20T00:20:31;100351.03;;;11.90;92.44
71239;BME280;61342;51.442;7.370;2023-03-20T00:21:31;100345.03;;;11.88;92.56
71239;BME280;61342;51.442;7.370;2023-03-20T00:22:32;100347.91;;;11.88;92.79
71239;BME280;61342;51.442;7.370;2023-03-20T00:23:32;100356.31;;;11.86;92.60
71239;BME280;61342;51.442;7.370;2023-03-20T00:24:32;100364.97;;;11.86;92.70
71239;BME280;61342;51.442;7.370;2023-03-20T00:25:33;100354.75;;;11.85;92.59
71239;BME280;61342;51.442;7.370;2023-03-20T00:26:34;100358.94;;;11.84;92.19
71239;BME280;61342;51.442;7.370;2023-03-20T00:27:35;100357.91;;;11.82;92.39
71239;BME280;61342;51.442;7.370;2023-03-20T00:29:39;100358.44;;;11.80;92.60
71239;BME280;61342;51.442;7.370;2023-03-20T00:30:40;100362.91;;;11.81;92.36
71239;BME280;61342;51.442;7.370;2023-03-20T00:31:40;100362.66;;;11.79;92.02
71239;BME280;61342;51.442;7.370;2023-03-20T00:32:41;100375.50;;;11.78;92.01
71239;BME280;61342;51.442;7.370;2023-03-20T00:33:41;100364.03;;;11.73;92.12
71239;BME280;61342;51.442;7.370;2023-03-20T00:34:41;100359.56;;;11.72;91.76
71239;BME280;61342;51.442;7.370;2023-03-20T00:35:42;100354.09;;;11.68;91.66
71239;BME280;61342;51.442;7.370;2023-03-20T00:36:42;100367.94;;;11.70;91.79
71239;BME280;61342;51.442;7.370;2023-03-20T00:37:42;100364.06;;;11.67;91.54
71239;BME280;61342;51.442;7.370;2023-03-20T00:38:43;100364.59;;;11.66;91.57
71239;BME280;61342;51.442;7.370;2023-03-20T00:39:43;100370.09;;;11.64;91.26
71239;BME280;61342;51.442;7.370;2023-03-20T00:40:43;100365.66;;;11.63;91.18
71239;BME280;61342;51.442;7.370;2023-03-20T00:42:03;100359.44;;;11.53;91.09
71239;BME280;61342;51.442;7.370;2023-03-20T00:43:05;100361.03;;;11.54;91.17
71239;BME280;61342;51.442;7.370;2023-03-20T00:44:19;100356.56;;;11.53;91.10
71239;BME280;61342;51.442;7.370;2023-03-20T00:45:21;100364.72;;;11.50;91.10
71239;BME280;61342;51.442;7.370;2023-03-20T00:46:22;100364.94;;;11.51;91.57
71239;BME280;61342;51.442;7.370;2023-03-20T00:47:23;100374.13;;;11.50;91.50
71239;BME280;61342;51.442;7.370;2023-03-20T00:48:24;100371.25;;;11.50;91.54
71239;BME280;61342;51.442;7.370;2023-03-20T00:49:35;100373.06;;;11.48;91.41
71239;BME280;61342;51.442;7.370;2023-03-20T00:50:37;100363.91;;;11.44;91.64
71239;BME280;61342;51.442;7.370;2023-03-20T00:51:37;100362.88;;;11.47;91.49
71239;BME280;61342;51.442;7.370;2023-03-20T00:52:38;100364.19;;;11.46;91.71
71239;BME280;61342;51.442;7.370;2023-03-20T00:53:39;100365.75;;;11.47;91.71
71239;BME280;61342;51.442;7.370;2023-03-20T00:54:39;100370.19;;;11.48;91.71
71239;BME280;61342;51.442;7.370;2023-03-20T00:55:40;100362.88;;;11.47;91.38
71239;BME280;61342;51.442;7.370;2023-03-20T00:56:47;100372.81;;;11.46;91.79
71239;BME280;61342;51.442;7.370;2023-03-20T00:57:56;100369.16;;;11.45;92.00
71239;BME280;61342;51.442;7.370;2023-03-20T00:58:59;100371.25;;;11.45;91.99
71239;BME280;61342;51.442;7.370;2023-03-20T01:01:13;100370.22;;;11.42;91.72
71239;BME280;61342;51.442;7.370;2023-03-20T01:02:15;100366.03;;;11.43;91.99
71239;BME280;61342;51.442;7.370;2023-03-20T01:03:18;100371.03;;;11.43;91.89
71239;BME280;61342;51.442;7.370;2023-03-20T01:04:19;100361.34;;;11.40;91.81
71239;BME280;61342;51.442;7.370;2023-03-20T01:05:20;100359.00;;;11.39;91.97
71239;BME280;61342;51.442;7.370;2023-03-20T01:06:21;100365.00;;;11.41;91.76
71239;BME280;61342;51.442;7.370;2023-03-20T01:07:21;100356.91;;;11.39;91.78
71239;BME280;61342;51.442;7.370;2023-03-20T01:08:24;100361.63;;;11.37;91.89
71239;BME280;61342;51.442;7.370;2023-03-20T01:09:25;100355.09;;;11.36;91.92
71239;BME280;61342;51.442;7.370;2023-03-20T01:10:31;100358.75;;;11.37;91.92
71239;BME280;61342;51.442;7.370;2023-03-20T01:11:32;100358.50;;;11.35;91.83
71239;BME280;61342;51.442;7.370;2023-03-20T01:12:32;100349.88;;;11.35;91.95
71239;BME280;61342;51.442;7.370;2023-03-20T01:13:33;100351.94;;;11.34;91.61
71239;BME280;61342;51.442;7.370;2023-03-20T01:14:34;100347.81;;;11.30;91.96
71239;BME280;61342;51.442;7.370;2023-03-20T01:15:35;100347.81;;;11.30;91.78
71239;BME280;61342;51.442;7.370;2023-03-20T01:16:35;100353.03;;;11.31;92.02
71239;BME280;61342;51.442;7.370;2023-03-20T01:17:35;100362.69;;;11.34;91.70
71239;BME280;61342;51.442;7.370;2023-03-20T01:18:36;100351.19;;;11.34;92.10
71239;BME280;61342;51.442;7.370;2023-03-20T01:19:37;100358.25;;;11.33;91.63
71239;BME280;61342;51.442;7.370;2023-03-20T01:20:37;100352.25;;;11.31;91.94
71239;BME280;61342;51.442;7.370;2023-03-20T01:21:38;100347.00;;;11.29;91.61
71239;BME280;61342;51.442;7.370;2023-03-20T01:22:39;100359.56;;;11.32;91.72
71239;BME280;61342;51.442;7.370;2023-03-20T01:23:39;100349.38;;;11.31;91.68
71239;BME280;61342;51.442;7.370;2023-03-20T01:24:40;100353.56;;;11.30;91.44
71239;BME280;61342;51.442;7.370;2023-03-20T01:25:40;100352.25;;;11.25;91.25
71239;BME280;61342;51.442;7.370;2023-03-20T01:26:43;100345.50;;;11.23;91.15
71239;BME280;61342;51.442;7.370;2023-03-20T01:27:47;100339.75;;;11.17;91.41
71239;BME280;61342;51.442;7.370;2023-03-20T01:28:49;100349.44;;;11.20;90.87
71239;BME280;61342;51.442;7.370;2023-03-20T01:29:49;100354.91;;;11.23;90.83
71239;BME280;61342;51.442;7.370;2023-03-20T01:30:50;100357.78;;;11.23;90.84
71239;BME280;61342;51.442;7.370;2023-03-20T01:31:52;100352.03;;;11.23;91.33
71239;BME280;61342;51.442;7.370;2023-03-20T01:32:52;100341.09;;;11.16;91.10
71239;BME280;61342;51.442;7.370;2023-03-20T01:33:53;100356.50;;;11.19;91.05
71239;BME280;61342;51.442;7.370;2023-03-20T01:34:53;100362.78;;;11.23;91.08
71239;BME280;61342;51.442;7.370;2023-03-20T01:35:54;100350.19;;;11.26;91.30
71239;BME280;61342;51.442;7.370;2023-03-20T01:36:57;100353.59;;;11.24;91.27
71239;BME280;61342;51.442;7.370;2023-03-20T01:38:00;100357.25;;;11.25;91.24
71239;BME280;61342;51.442;7.370;2023-03-20T01:39:00;100342.94;;;11.14;91.18
71239;BME280;61342;51.442;7.370;2023-03-20T01:40:01;100352.81;;;11.24;91.18
71239;BME280;61342;51.442;7.370;2023-03-20T01:42:05;100358.31;;;11.22;91.39
71239;BME280;61342;51.442;7.370;2023-03-20T01:43:13;100354.69;;;11.16;91.17
71239;BME280;61342;51.442;7.370;2023-03-20T01:44:35;100353.66;;;11.13;91.35
71239;BME280;61342;51.442;7.370;2023-03-20T01:45:36;100364.38;;;11.13;91.55
71239;BME280;61342;51.442;7.370;2023-03-20T01:46:39;100364.38;;;11.13;91.70
71239;BME280;61342;51.442;7.370;2023-03-20T01:47:40;100350.84;;;11.02;91.37
71239;BME280;61342;51.442;7.370;2023-03-20T01:50:29;100372.78;;;11.05;91.89
71239;BME280;61342;51.442;7.370;2023-03-20T01:51:30;100371.75;;;11.03;91.76
71239;BME280;61342;51.442;7.370;2023-03-20T01:52:35;100379.06;;;11.04;92.23
71239;BME280;61342;51.442;7.370;2023-03-20T01:53:35;100384.06;;;11.03;92.17
71239;BME280;61342;51.442;7.370;2023-03-20T01:54:37;100381.19;;;10.98;92.01
71239;BME280;61342;51.442;7.370;2023-03-20T01:55:39;100391.63;;;11.01;92.18
71239;BME280;61342;51.442;7.370;2023-03-20T01:57:04;100385.13;;;10.95;92.18
71239;BME280;61342;51.442;7.370;2023-03-20T01:58:12;100378.84;;;10.96;92.19
71239;BME280;61342;51.442;7.370;2023-03-20T01:59:22;100396.09;;;10.96;92.29
71239;BME280;61342;51.442;7.370;2023-03-20T02:00:24;100390.63;;;10.93;92.69
71239;BME280;61342;51.442;7.370;2023-03-20T02:01:25;100392.44;;;10.96;92.69
71239;BME280;61342;51.442;7.370;2023-03-20T02:02:29;100383.56;;;10.94;92.43
71239;BME280;61342;51.442;7.370;2023-03-20T02:03:31;100394.81;;;10.92;92.68
71239;BME280;61342;51.442;7.370;2023-03-20T02:04:37;100381.72;;;10.91;92.47
71239;BME280;61342;51.442;7.370;2023-03-20T02:05:41;100379.38;;;10.90;92.26
71239;BME280;61342;51.442;7.370;2023-03-20T02:06:43;100379.94;;;10.88;92.17
71239;BME280;61342;51.442;7.370;2023-03-20T02:07:48;100383.34;;;10.87;92.19
71239;BME280;61342;51.442;7.370;2023-03-20T02:08:51;100382.56;;;10.86;92.17
71239;BME280;61342;51.442;7.370;2023-03-20T02:09:52;100375.78;;;10.84;92.17
71239;BME280;61342;51.442;7.370;2023-03-20T02:10:53;100367.69;;;10.82;92.07
71239;BME280;61342;51.442;7.370;2023-03-20T02:11:55;100361.94;;;10.82;92.04
71239;BME280;61342;51.442;7.370;2023-03-20T02:12:57;100365.03;;;10.84;92.10
71239;BME280;61342;51.442;7.370;2023-03-20T02:13:59;100357.72;;;10.83;92.08
71239;BME280;61342;51.442;7.370;2023-03-20T02:15:01;100364.28;;;10.84;91.87
71239;BME280;61342;51.442;7.370;2023-03-20T02:16:13;100370.28;;;10.80;91.97
71239;BME280;61342;51.442;7.370;2023-03-20T02:17:14;100362.97;;;10.79;91.95
71239;BME280;61342;51.442;7.370;2023-03-20T02:18:14;100366.63;;;10.80;91.88
71239;BME280;61342;51.442;7.370;2023-03-20T02:27:31;100370.34;;;10.69;91.49
71239;BME280;61342;51.442;7.370;2023-03-20T02:31:30;100372.72;;;10.65;91.62
71239;BME280;61342;51.442;7.370;2023-03-20T02:37:13;100402.25;;;10.60;91.61
71239;BME280;61342;51.442;7.370;2023-03-20T02:39:59;100395.19;;;10.56;91.69
71239;BME280;61342;51.442;7.370;2023-03-20T02:41:20;100385.25;;;10.57;91.55
71239;BME280;61342;51.442;7.370;2023-03-20T02:42:39;100376.94;;;10.53;91.53
71239;BME280;61342;51.442;7.370;2023-03-20T02:43:59;100370.91;;;10.51;91.55
71239;BME280;61342;51.442;7.370;2023-03-20T02:45:11;100365.16;;;10.51;91.53
71239;BME280;61342;51.442;7.370;2023-03-20T02:47:40;100360.19;;;10.46;91.79
71239;BME280;61342;51.442;7.370;2023-03-20T02:48:48;100369.34;;;10.50;91.88
71239;BME280;61342;51.442;7.370;2023-03-20T02:51:25;100369.34;;;10.50;91.77
71239;BME280;61342;51.442;7.370;2023-03-20T02:54:18;100371.69;;;10.52;91.87
71239;BME280;61342;51.442;7.370;2023-03-20T02:55:30;100373.03;;;10.45;91.71
71239;BME280;61342;51.442;7.370;2023-03-20T02:57:58;100371.47;;;10.44;91.78
71239;BME280;61342;51.442;7.370;2023-03-20T03:00:27;100383.72;;;10.45;91.70
71239;BME280;61342;51.442;7.370;2023-03-20T03:01:36;100387.13;;;10.43;91.61
71239;BME280;61342;51.442;7.370;2023-03-20T03:02:46;100386.34;;;10.43;91.61
71239;BME280;61342;51.442;7.370;2023-03-20T03:04:01;100387.66;;;10.42;91.58
71239;BME280;61342;51.442;7.370;2023-03-20T03:05:09;100402.78;;;10.42;91.63
71239;BME280;61342;51.442;7.370;2023-03-20T03:07:19;100391.34;;;10.32;91.76
71239;BME280;61342;51.442;7.370;2023-03-20T03:08:23;100379.84;;;10.32;91.52
71239;BME280;61342;51.442;7.370;2023-03-20T03:09:32;100398.88;;;10.40;91.77
71239;BME280;61342;51.442;7.370;2023-03-20T03:10:37;100399.69;;;10.40;91.81
71239;BME280;61342;51.442;7.370;2023-03-20T03:12:06;100406.97;;;10.36;91.67
71239;BME280;61342;51.442;7.370;2023-03-20T03:13:11;100403.63;;;10.37;91.78
71239;BME280;61342;51.442;7.370;2023-03-20T03:14:18;100410.91;;;10.38;91.68
71239;BME280;61342;51.442;7.370;2023-03-20T03:15:28;100406.47;;;10.37;91.52
71239;BME280;61342;51.442;7.370;2023-03-20T03:16:34;100401.25;;;10.36;91.72
71239;BME280;61342;51.442;7.370;2023-03-20T03:17:37;100399.94;;;10.37;91.60
71239;BME280;61342;51.442;7.370;2023-03-20T03:18:39;100405.69;;;10.37;91.56
71239;BME280;61342;51.442;7.370;2023-03-20T03:19:46;100400.47;;;10.35;91.70
71239;BME280;61342;51.442;7.370;2023-03-20T03:20:51;100412.22;;;10.37;91.57
71239;BME280;61342;51.442;7.370;2023-03-20T03:21:54;100404.91;;;10.36;91.69
71239;BME280;61342;51.442;7.370;2023-03-20T03:22:57;100397.84;;;10.32;91.63
71239;BME280;61342;51.442;7.370;2023-03-20T03:23:58;100401.75;;;10.34;91.63
71239;BME280;61342;51.442;7.370;2023-03-20T03:24:59;100401.53;;;10.33;91.68
71239;BME280;61342;51.442;7.370;2023-03-20T03:26:01;100397.34;;;10.28;91.70
71239;BME280;61342;51.442;7.370;2023-03-20T03:27:12;100398.91;;;10.29;91.75
71239;BME280;61342;51.442;7.370;2023-03-20T03:28:30;100409.34;;;10.32;91.43
71239;BME280;61342;51.442;7.370;2023-03-20T03:29:37;100407.50;;;10.34;91.58
71239;BME280;61342;51.442;7.370;2023-03-20T03:30:40;100408.31;;;10.35;91.58
71239;BME280;61342;51.442;7.370;2023-03-20T03:31:44;100404.41;;;10.33;91.29
71239;BME280;61342;51.442;7.370;2023-03-20T03:32:50;100402.81;;;10.32;91.45
71239;BME280;61342;51.442;7.370;2023-03-20T03:33:58;100401.25;;;10.31;91.58
71239;BME280;61342;51.442;7.370;2023-03-20T03:35:02;100401.53;;;10.33;91.68
71239;BME280;61342;51.442;7.370;2023-03-20T03:38:01;100387.41;;;10.29;91.38
71239;BME280;61342;51.442;7.370;2023-03-20T03:40:43;100366.25;;;10.27;91.27
71239;BME280;61342;51.442;7.370;2023-03-20T03:41:49;100372.00;;;10.27;91.37
71239;BME280;61342;51.442;7.370;2023-03-20T03:43:00;100361.31;;;10.22;91.36
71239;BME280;61342;51.442;7.370;2023-03-20T03:44:12;100368.59;;;10.28;91.04
71239;BME280;61342;51.442;7.370;2023-03-20T03:45:25;100350.88;;;10.19;91.13
71239;BME280;61342;51.442;7.370;2023-03-20T03:46:52;100375.41;;;10.25;91.05
71239;BME280;61342;51.442;7.370;2023-03-20T03:49:02;100352.97;;;10.24;90.86
71239;BME280;61342;51.442;7.370;2023-03-20T03:51:23;100346.69;;;10.25;90.79
71239;BME280;61342;51.442;7.370;2023-03-20T03:52:25;100340.16;;;10.25;90.83
71239;BME280;61342;51.442;7.370;2023-03-20T03:53:33;100334.44;;;10.19;90.90
71239;BME280;61342;51.442;7.370;2023-03-20T03:54:41;100341.19;;;10.22;90.84
71239;BME280;61342;51.442;7.370;2023-03-20T03:55:47;100333.91;;;10.21;90.89
71239;BME280;61342;51.442;7.370;2023-03-20T03:56:49;100331.03;;;10.21;91.08
71239;BME280;61342;51.442;7.370;2023-03-20T03:58:27;100332.88;;;10.18;90.82
71239;BME280;61342;51.442;7.370;2023-03-20T03:59:35;100331.56;;;10.19;90.89
71239;BME280;61342;51.442;7.370;2023-03-20T04:00:40;100333.91;;;10.21;90.91
71239;BME280;61342;51.442;7.370;2023-03-20T04:01:42;100335.97;;;10.20;90.99
71239;BME280;61342;51.442;7.370;2023-03-20T04:02:46;100330.00;;;10.18;90.68
71239;BME280;61342;51.442;7.370;2023-03-20T04:03:52;100330.53;;;10.17;90.83
71239;BME280;61342;51.442;7.370;2023-03-20T04:04:55;100319.03;;;10.11;90.67
71239;BME280;61342;51.442;7.370;2023-03-20T04:05:57;100332.06;;;10.18;90.68
71239;BME280;61342;51.442;7.370;2023-03-20T04:06:57;100334.16;;;10.17;90.58
71239;BME280;61342;51.442;7.370;2023-03-20T04:08:00;100336.25;;;10.17;90.74
71239;BME280;61342;51.442;7.370;2023-03-20T04:09:01;100344.34;;;10.18;90.71
71239;BME280;61342;51.442;7.370;2023-03-20T04:10:01;100340.69;;;10.18;90.85
71239;BME280;61342;51.442;7.370;2023-03-20T04:11:02;100338.88;;;10.09;91.06
71239;BME280;61342;51.442;7.370;2023-03-20T04:12:03;100349.81;;;10.16;90.81
71239;BME280;61342;51.442;7.370;2023-03-20T04:13:03;100343.84;;;10.14;90.51
71239;BME280;61342;51.442;7.370;2023-03-20T04:14:03;100362.13;;;10.17;90.66
71239;BME280;61342;51.442;7.370;2023-03-20T04:15:04;100373.59;;;10.17;90.62
71239;BME280;61342;51.442;7.370;2023-03-20T04:16:06;100362.09;;;10.11;90.64
71239;BME280;61342;51.442;7.370;2023-03-20T04:17:06;100378.84;;;10.13;90.47
71239;BME280;61342;51.442;7.370;2023-03-20T04:18:08;100375.69;;;10.11;90.60
71239;BME280;61342;51.442;7.370;2023-03-20T04:19:08;100376.47;;;10.11;90.61
71239;BME280;61342;51.442;7.370;2023-03-20T04:20:10;100387.44;;;10.13;90.53
71239;BME280;61342;51.442;7.370;2023-03-20T04:21:11;100388.75;;;10.12;90.41
71239;BME280;61342;51.442;7.370;2023-03-20T04:22:12;100380.13;;;10.12;90.46
71239;BME280;61342;51.442;7.370;2023-03-20T04:23:13;100378.56;;;10.11;90.72
71239;BME280;61342;51.442;7.370;2023-03-20T04:24:13;100384.31;;;10.11;90.52
71239;BME280;61342;51.442;7.370;2023-03-20T04:25:20;100374.13;;;10.10;90.52
71239;BME280;61342;51.442;7.370;2023-03-20T04:26:21;100383.53;;;10.10;90.57
71239;BME280;61342;51.442;7.370;2023-03-20T04:27:22;100375.16;;;10.07;90.71
71239;BME280;61342;51.442;7.370;2023-03-20T04:28:23;100375.44;;;10.09;90.44
71239;BME280;61342;51.442;7.370;2023-03-20T04:29:23;100375.44;;;10.09;90.50
71239;BME280;61342;51.442;7.370;2023-03-20T04:30:38;100382.22;;;10.06;90.67
71239;BME280;61342;51.442;7.370;2023-03-20T04:31:39;100363.69;;;9.96;90.76
71239;BME280;61342;51.442;7.370;2023-03-20T04:32:45;100376.47;;;10.06;90.73
71239;BME280;61342;51.442;7.370;2023-03-20T04:33:45;100375.16;;;10.07;90.74
71239;BME280;61342;51.442;7.370;2023-03-20T04:34:49;100366.81;;;9.98;90.80
71239;BME280;61342;51.442;7.370;2023-03-20T04:35:59;100365.28;;;9.97;90.57
71239;BME280;61342;51.442;7.370;2023-03-20T04:38:43;100360.28;;;10.03;90.43
71239;BME280;61342;51.442;7.370;2023-03-20T04:39:46;100355.09;;;9.96;90.75
71239;BME280;61342;51.442;7.370;2023-03-20T04:40:46;100361.59;;;10.02;90.74
71239;BME280;61342;51.442;7.370;2023-03-20T04:41:47;100361.06;;;9.98;90.92
71239;BME280;61342;51.442;7.370;2023-03-20T04:42:51;100348.28;;;9.93;90.93
71239;BME280;61342;51.442;7.370;2023-03-20T04:43:54;100338.88;;;9.87;90.61
71239;BME280;61342;51.442;7.370;2023-03-20T04:44:59;100353.22;;;9.93;90.83
71239;BME280;61342;51.442;7.370;2023-03-20T04:46:00;100332.06;;;9.85;91.03
71239;BME280;61342;51.442;7.370;2023-03-20T04:47:00;100352.97;;;10.02;91.21
71239;BME280;61342;51.442;7.370;2023-03-20T04:48:01;100348.56;;;10.01;90.77
71239;BME280;61342;51.442;7.370;2023-03-20T04:49:01;100340.72;;;9.96;90.76
71239;BME280;61342;51.442;7.370;2023-03-20T04:50:02;100337.03;;;9.90;90.81
71239;BME280;61342;51.442;7.370;2023-03-20T04:51:02;100345.41;;;9.99;90.87
71239;BME280;61342;51.442;7.370;2023-03-20T04:52:03;100328.69;;;9.92;90.88
71239;BME280;61342;51.442;7.370;2023-03-20T04:53:04;100316.72;;;9.82;90.75
71239;BME280;61342;51.442;7.370;2023-03-20T04:54:07;100340.72;;;9.96;90.84
71239;BME280;61342;51.442;7.370;2023-03-20T04:55:08;100333.13;;;9.93;90.64
71239;BME280;61342;51.442;7.370;2023-03-20T04:56:14;100349.88;;;10.00;90.86
71239;BME280;61342;51.442;7.370;2023-03-20T04:57:17;100331.56;;;9.92;90.59
71239;BME280;61342;51.442;7.370;2023-03-20T04:58:18;100323.47;;;9.85;90.70
71239;BME280;61342;51.442;7.370;2023-03-20T06:24:54;100364.34;;;7.73;99.88
71239;BME280;61342;51.442;7.370;2023-03-20T06:25:56;100359.69;;;7.76;99.82
71239;BME280;61342;51.442;7.370;2023-03-20T06:26:56;100369.09;;;7.82;99.96
71239;BME280;61342;51.442;7.370;2023-03-20T06:27:56;100364.22;;;7.88;100.00
71239;BME280;61342;51.442;7.370;2023-03-20T06:28:57;100370.25;;;7.95;100.00
71239;BME280;61342;51.442;7.370;2023-03-20T06:29:57;100373.19;;;8.06;100.00
71239;BME280;61342;51.442;7.370;2023-03-20T06:30:57;100377.66;;;8.12;100.00
71239;BME280;61342;51.442;7.370;2023-03-20T06:31:58;100384.78;;;8.22;100.00
71239;BME280;61342;51.442;7.370;2023-03-20T06:32:58;100373.09;;;8.26;100.00
71239;BME280;61342;51.442;7.370;2023-03-20T06:33:58;100386.97;;;8.38;100.00
71239;BME280;61342;51.442;7.370;2023-03-20T06:34:59;100377.34;;;8.41;100.00
71239;BME280;61342;51.442;7.370;2023-03-20T06:35:59;100391.72;;;8.52;100.00
71239;BME280;61342;51.442;7.370;2023-03-20T06:37:00;100374.28;;;8.50;100.00
71239;BME280;61342;51.442;7.370;2023-03-20T06:38:00;100386.34;;;8.65;100.00
71239;BME280;61342;51.442;7.370;2023-03-20T06:39:01;100391.03;;;8.68;100.00
71239;BME280;61342;51.442;7.370;2023-03-20T06:40:03;100387.69;;;8.75;100.00
71239;BME280;61342;51.442;7.370;2023-03-20T06:41:03;100382.19;;;8.71;99.85
71239;BME280;61342;51.442;7.370;2023-03-20T06:42:04;100392.66;;;8.85;99.63
71239;BME280;61342;51.442;7.370;2023-03-20T06:43:05;100389.53;;;8.83;99.41
71239;BME280;61342;51.442;7.370;2023-03-20T06:44:06;100396.09;;;8.89;99.21
71239;BME280;61342;51.442;7.370;2023-03-20T06:45:09;100393.78;;;8.99;98.95
71239;BME280;61342;51.442;7.370;2023-03-20T06:46:16;100388.59;;;9.03;98.75
71239;BME280;61342;51.442;7.370;2023-03-20T06:47:16;100382.34;;;9.04;98.74
71239;BME280;61342;51.442;7.370;2023-03-20T06:48:17;100383.38;;;9.07;98.39
71239;BME280;61342;51.442;7.370;2023-03-20T06:49:21;100388.09;;;9.10;98.20
71239;BME280;61342;51.442;7.370;2023-03-20T06:50:21;100383.13;;;9.10;98.06
71239;BME280;61342;51.442;7.370;2023-03-20T06:51:21;100390.44;;;9.17;97.65
71239;BME280;61342;51.442;7.370;2023-03-20T06:52:22;100389.16;;;9.18;97.63
71239;BME280;61342;51.442;7.370;2023-03-20T06:53:23;100393.84;;;9.20;97.56
71239;BME280;61342;51.442;7.370;2023-03-20T06:54:25;100392.03;;;9.23;97.16
71239;BME280;61342;51.442;7.370;2023-03-20T06:55:25;100395.69;;;9.23;96.98
71239;BME280;61342;51.442;7.370;2023-03-20T06:56:26;100385.50;;;9.22;96.75
71239;BME280;61342;51.442;7.370;2023-03-20T06:57:26;100392.56;;;9.27;96.63
71239;BME280;61342;51.442;7.370;2023-03-20T06:58:26;100400.63;;;9.28;96.44
71239;BME280;61342;51.442;7.370;2023-03-20T06:59:27;100400.63;;;9.28;96.26
71239;BME280;61342;51.442;7.370;2023-03-20T07:00:27;100398.06;;;9.30;96.14
71239;BME280;61342;51.442;7.370;2023-03-20T07:01:28;100399.88;;;9.33;96.03
71239;BME280;61342;51.442;7.370;2023-03-20T07:02:28;100400.94;;;9.36;95.81
71239;BME280;61342;51.442;7.370;2023-03-20T07:03:28;100399.09;;;9.38;95.71
71239;BME280;61342;51.442;7.370;2023-03-20T07:04:29;100403.56;;;9.39;95.62
71239;BME280;61342;51.442;7.370;2023-03-20T07:05:29;100398.88;;;9.42;95.43
71239;BME280;61342;51.442;7.370;2023-03-20T07:06:29;100407.72;;;9.44;95.27
71239;BME280;61342;51.442;7.370;2023-03-20T07:07:30;100407.19;;;9.45;95.13
71239;BME280;61342;51.442;7.370;2023-03-20T07:08:30;100403.28;;;9.48;94.88
71239;BME280;61342;51.442;7.370;2023-03-20T07:09:31;100397.31;;;9.46;94.63
71239;BME280;61342;51.442;7.370;2023-03-20T07:10:32;100393.63;;;9.40;94.60
71239;BME280;61342;51.442;7.370;2023-03-20T07:11:33;100400.16;;;9.52;94.26
71239;BME280;61342;51.442;7.370;2023-03-20T07:12:34;100409.84;;;9.54;94.34
71239;BME280;61342;51.442;7.370;2023-03-20T07:13:37;100397.06;;;9.55;94.12
71239;BME280;61342;51.442;7.370;2023-03-20T07:14:38;100405.91;;;9.57;93.61
71239;BME280;61342;51.442;7.370;2023-03-20T07:15:38;100400.97;;;9.58;93.63
71239;BME280;61342;51.442;7.370;2023-03-20T07:16:39;100404.63;;;9.58;93.35
71239;BME280;61342;51.442;7.370;2023-03-20T07:17:39;100396.53;;;9.57;93.22
71239;BME280;61342;51.442;7.370;2023-03-20T07:18:39;100403.84;;;9.63;92.96
71239;BME280;61342;51.442;7.370;2023-03-20T07:19:40;100414.03;;;9.64;92.88
71239;BME280;61342;51.442;7.370;2023-03-20T07:20:40;100407.78;;;9.66;92.78
71239;BME280;61342;51.442;7.370;2023-03-20T07:21:41;100408.03;;;9.68;92.73
71239;BME280;61342;51.442;7.370;2023-03-20T07:22:41;100399.94;;;9.66;92.49
71239;BME280;61342;51.442;7.370;2023-03-20T07:23:42;100404.63;;;9.69;92.33
71239;BME280;61342;51.442;7.370;2023-03-20T07:24:42;100409.06;;;9.75;92.21
71239;BME280;61342;51.442;7.370;2023-03-20T07:25:42;100411.69;;;9.79;92.07
71239;BME280;61342;51.442;7.370;2023-03-20T07:26:44;100403.31;;;9.81;91.75
71239;BME280;61342;51.442;7.370;2023-03-20T07:27:44;100411.44;;;9.82;91.77
71239;BME280;61342;51.442;7.370;2023-03-20T07:28:49;100412.47;;;9.85;91.52
71239;BME280;61342;51.442;7.370;2023-03-20T07:29:50;100409.34;;;9.88;91.44
71239;BME280;61342;51.442;7.370;2023-03-20T07:30:50;100410.13;;;9.89;91.22
71239;BME280;61342;51.442;7.370;2023-03-20T07:31:50;100408.28;;;9.91;91.38
71239;BME280;61342;51.442;7.370;2023-03-20T07:32:51;100409.66;;;9.96;90.78
71239;BME280;61342;51.442;7.370;2023-03-20T07:33:51;100400.50;;;9.97;90.92
71239;BME280;61342;51.442;7.370;2023-03-20T07:34:52;100410.41;;;10.02;90.87
71239;BME280;61342;51.442;7.370;2023-03-20T07:35:53;100417.19;;;10.04;90.74